Time;durP1;ratioP1;P1;durP2;ratioP2;P2;SDS_P1;SDS_P2;PMS_P1;PMS_P2;Temp;Humidity;BMP_temperature;BMP_pressure;BME280_temperature;BME280_humidity;BME280_pressure;Samples;Min_cycle;Max_cycle;Signal;HPM_P1;HPM_P2
2023/12/07 00:01:55;;;;;;;19.40;15.90;;;4.00;99.90;;;;;;5052593;28;20487;-64
2023/12/07 00:04:23;;;;;;;18.20;14.90;;;4.00;99.90;;;;;;5052287;28;20461;-64
2023/12/07 00:06:50;;;;;;;22.47;15.20;;;4.10;99.90;;;;;;5052858;28;20445;-64
2023/12/07 00:09:16;;;;;;;18.57;15.00;;;4.10;99.90;;;;;;5052761;28;20441;-64
2023/12/07 00:11:43;;;;;;;22.00;15.57;;;4.10;99.90;;;;;;5052345;28;20950;-64
2023/12/07 00:14:10;;;;;;;16.70;14.23;;;4.20;99.90;;;;;;5052467;28;20627;-64
2023/12/07 00:16:36;;;;;;;20.10;15.20;;;4.20;99.90;;;;;;5052404;28;20822;-64
2023/12/07 00:19:03;;;;;;;16.37;14.57;;;4.10;99.90;;;;;;5054331;28;20536;-64
2023/12/07 00:21:31;;;;;;;22.43;16.23;;;4.10;99.90;;;;;;5056342;28;20473;-64
2023/12/07 00:23:58;;;;;;;16.93;14.23;;;4.10;99.90;;;;;;5056168;28;20433;-64
2023/12/07 00:26:24;;;;;;;18.00;15.23;;;4.10;99.90;;;;;;5056352;28;20441;-64
2023/12/07 00:28:51;;;;;;;19.43;14.47;;;4.10;99.90;;;;;;5056401;28;20445;-64
2023/12/07 00:31:19;;;;;;;19.87;14.00;;;4.10;99.90;;;;;;5056222;28;20472;-64
2023/12/07 00:33:46;;;;;;;17.57;14.37;;;4.20;99.90;;;;;;5056183;28;20515;-64
2023/12/07 00:36:13;;;;;;;18.70;13.70;;;4.10;99.90;;;;;;5056329;28;20445;-64
2023/12/07 00:38:41;;;;;;;17.50;14.83;;;4.10;99.90;;;;;;5056211;28;20455;-64
2023/12/07 00:41:08;;;;;;;15.77;13.47;;;4.10;99.90;;;;;;5055607;28;20973;-64
2023/12/07 00:43:35;;;;;;;20.50;15.17;;;4.10;99.90;;;;;;5056015;28;20445;-64
2023/12/07 00:46:02;;;;;;;16.47;13.80;;;4.10;99.90;;;;;;5056194;28;20461;-64
2023/12/07 00:48:29;;;;;;;17.43;13.17;;;4.00;99.90;;;;;;5055869;28;20986;-65
2023/12/07 00:50:55;;;;;;;16.33;13.73;;;4.00;99.90;;;;;;5055929;28;20466;-65
2023/12/07 00:53:22;;;;;;;15.27;13.47;;;4.00;99.90;;;;;;5056077;28;20445;-64
2023/12/07 00:55:50;;;;;;;17.77;14.77;;;4.00;99.90;;;;;;5055750;28;20981;-64
2023/12/07 00:58:17;;;;;;;18.60;13.67;;;4.00;99.90;;;;;;5055945;28;20445;-64
2023/12/07 01:00:44;;;;;;;20.83;14.20;;;3.90;99.90;;;;;;5055991;28;20481;-65
2023/12/07 01:03:10;;;;;;;15.03;13.20;;;3.90;99.90;;;;;;5056124;28;20461;-64
2023/12/07 01:05:37;;;;;;;18.03;13.97;;;3.90;99.90;;;;;;5056245;28;20437;-64
2023/12/07 01:08:04;;;;;;;18.90;14.80;;;3.90;99.90;;;;;;5055716;28;20450;-64
2023/12/07 01:10:32;;;;;;;15.80;13.00;;;3.90;99.90;;;;;;5055472;28;20995;-64
2023/12/07 01:13:00;;;;;;;20.60;14.43;;;3.80;99.90;;;;;;5055752;28;20450;-64
2023/12/07 01:15:27;;;;;;;17.97;13.63;;;3.80;99.90;;;;;;5055438;28;20442;-64
2023/12/07 01:17:53;;;;;;;16.93;13.20;;;3.80;99.90;;;;;;5055498;28;20499;-64
2023/12/07 01:20:20;;;;;;;16.33;13.30;;;3.80;99.90;;;;;;5055565;28;20520;-64
2023/12/07 01:22:47;;;;;;;18.53;15.00;;;3.80;99.90;;;;;;5055275;28;20478;-64
2023/12/07 01:25:19;;;;;;;18.83;12.90;;;3.70;99.90;;;;;;5055061;28;20948;-64
2023/12/07 01:27:46;;;;;;;19.07;13.43;;;3.70;99.90;;;;;;5055139;28;20916;-64
2023/12/07 01:30:14;;;;;;;17.90;13.70;;;3.70;99.90;;;;;;5054478;28;20465;-64
2023/12/07 01:32:41;;;;;;;15.00;12.33;;;3.70;99.90;;;;;;5055311;28;20438;-64
2023/12/07 01:35:09;;;;;;;14.77;12.53;;;3.60;99.90;;;;;;5055193;28;20459;-64
2023/12/07 01:37:35;;;;;;;15.70;13.10;;;3.60;99.90;;;;;;5055323;28;20438;-65
2023/12/07 01:40:05;;;;;;;18.33;13.40;;;3.60;99.90;;;;;;5054982;28;20462;-64
2023/12/07 01:42:32;;;;;;;21.27;14.40;;;3.60;99.90;;;;;;5055372;28;20473;-64
2023/12/07 01:44:58;;;;;;;19.60;14.20;;;3.60;99.90;;;;;;5054881;28;20448;-64
2023/12/07 01:47:27;;;;;;;22.73;14.10;;;3.60;99.90;;;;;;5054829;28;20445;-64
2023/12/07 01:49:54;;;;;;;20.37;13.83;;;3.60;99.90;;;;;;5054880;28;20461;-65
2023/12/07 01:52:22;;;;;;;26.17;15.90;;;3.60;99.90;;;;;;5054575;28;20453;-65
2023/12/07 01:54:49;;;;;;;19.40;14.70;;;3.60;99.90;;;;;;5054796;28;20469;-65
2023/12/07 01:57:16;;;;;;;21.60;15.07;;;3.60;99.90;;;;;;5054561;28;20441;-64
2023/12/07 01:59:43;;;;;;;35.97;15.57;;;3.60;99.90;;;;;;5054598;28;20515;-64
2023/12/07 02:02:09;;;;;;;21.70;16.30;;;3.60;99.90;;;;;;5054439;28;20564;-64
2023/12/07 02:04:38;;;;;;;21.87;14.80;;;3.60;99.90;;;;;;5055007;28;20441;-65
2023/12/07 02:07:06;;;;;;;23.73;16.53;;;3.60;99.90;;;;;;5054535;28;20445;-64
2023/12/07 02:09:33;;;;;;;26.77;16.77;;;3.60;99.90;;;;;;5054447;28;20472;-64
2023/12/07 02:12:00;;;;;;;31.47;18.03;;;3.60;99.90;;;;;;5054514;28;20445;-64
2023/12/07 02:14:27;;;;;;;22.20;15.70;;;3.60;99.90;;;;;;5054435;28;20449;-64
2023/12/07 02:16:58;;;;;;;24.50;17.80;;;3.60;99.90;;;;;;5054253;28;20454;-64
2023/12/07 02:19:49;;;;;;;25.13;17.73;;;3.60;99.90;;;;;;5054299;28;20466;-64
2023/12/07 02:22:22;;;;;;;22.97;16.30;;;3.60;99.90;;;;;;5053941;28;20843;-65
2023/12/07 02:25:06;;;;;;;22.63;15.33;;;3.60;99.90;;;;;;5054467;28;20430;-65
2023/12/07 02:27:38;;;;;;;26.47;16.10;;;3.70;99.90;;;;;;5054169;28;20456;-65
2023/12/07 02:30:06;;;;;;;25.53;15.93;;;3.60;99.90;;;;;;5054139;28;20465;-64
2023/12/07 02:32:33;;;;;;;20.83;15.50;;;3.60;99.90;;;;;;5054068;28;20437;-64
2023/12/07 02:35:00;;;;;;;22.57;16.27;;;3.60;99.90;;;;;;5053624;28;20935;-64
2023/12/07 02:37:31;;;;;;;22.20;14.90;;;3.60;99.90;;;;;;5053997;28;20468;-65
2023/12/07 02:39:58;;;;;;;19.80;14.57;;;3.70;99.90;;;;;;5053683;28;20975;-64
2023/12/07 02:42:26;;;;;;;22.30;14.30;;;3.60;99.90;;;;;;5052804;28;20484;-65
2023/12/07 02:44:55;;;;;;;25.90;16.67;;;3.60;99.90;;;;;;5053822;28;20445;-65
2023/12/07 02:47:22;;;;;;;22.80;15.70;;;3.60;99.90;;;;;;5053674;28;20452;-65
2023/12/07 02:49:49;;;;;;;24.53;17.53;;;3.60;99.90;;;;;;5053779;28;20465;-65
2023/12/07 02:52:15;;;;;;;25.90;16.47;;;3.60;99.90;;;;;;5053315;28;20438;-65
2023/12/07 02:54:42;;;;;;;29.23;17.43;;;3.60;99.90;;;;;;5053351;28;20970;-65
2023/12/07 02:57:09;;;;;;;26.47;15.10;;;3.60;99.90;;;;;;5053640;28;20817;-65
2023/12/07 02:59:36;;;;;;;31.53;17.23;;;3.60;99.90;;;;;;5059361;28;20484;-65
2023/12/07 03:02:04;;;;;;;30.77;19.77;;;3.60;99.90;;;;;;5073304;28;20484;-65
2023/12/07 03:04:31;;;;;;;29.00;17.90;;;3.60;99.90;;;;;;5073272;28;20445;-65
2023/12/07 03:06:57;;;;;;;28.30;17.70;;;3.60;99.90;;;;;;5073324;28;20954;-64
2023/12/07 03:09:24;;;;;;;28.20;17.40;;;3.60;99.90;;;;;;5073509;28;20453;-64
2023/12/07 03:11:51;;;;;;;22.07;15.23;;;3.60;99.90;;;;;;5073361;28;20448;-65
2023/12/07 03:14:19;;;;;;;26.63;16.50;;;3.60;99.90;;;;;;5073444;28;20441;-64
2023/12/07 03:16:47;;;;;;;26.50;16.90;;;3.60;99.90;;;;;;5073064;28;20530;-64
2023/12/07 03:19:15;;;;;;;31.80;16.67;;;3.60;99.90;;;;;;5073246;28;20445;-64
2023/12/07 03:21:43;;;;;;;29.43;15.53;;;3.60;99.90;;;;;;5073252;28;20900;-65
2023/12/07 03:24:10;;;;;;;23.70;16.13;;;3.50;99.90;;;;;;5073406;28;20483;-65
2023/12/07 03:26:37;;;;;;;21.60;13.57;;;3.50;99.90;;;;;;5073031;28;21033;-65
2023/12/07 03:29:04;;;;;;;30.30;16.17;;;3.50;99.90;;;;;;5073269;28;20453;-65
2023/12/07 03:31:31;;;;;;;33.50;15.33;;;3.50;99.90;;;;;;5073001;28;20931;-65
2023/12/07 03:33:59;;;;;;;20.33;14.27;;;3.50;99.90;;;;;;5073279;28;20436;-65
2023/12/07 03:36:27;;;;;;;22.73;15.90;;;3.50;99.90;;;;;;5073144;28;20451;-65
2023/12/07 03:38:54;;;;;;;21.13;14.40;;;3.50;99.90;;;;;;5073205;28;20456;-65
2023/12/07 03:41:20;;;;;;;29.83;15.50;;;3.50;99.90;;;;;;5073037;28;20464;-65
2023/12/07 03:43:47;;;;;;;33.43;17.77;;;3.50;99.90;;;;;;5073098;28;20440;-65
2023/12/07 03:46:14;;;;;;;25.20;16.00;;;3.50;99.90;;;;;;5073094;28;20470;-65
2023/12/07 03:48:40;;;;;;;31.07;18.13;;;3.50;99.90;;;;;;5073113;28;20455;-64
2023/12/07 03:51:07;;;;;;;26.57;16.40;;;3.50;99.90;;;;;;5073063;28;20472;-64
2023/12/07 03:53:35;;;;;;;26.40;14.70;;;3.40;99.90;;;;;;5073864;28;20460;-64
2023/12/07 03:56:02;;;;;;;22.87;15.80;;;3.50;99.90;;;;;;5077030;28;20460;-64
2023/12/07 03:58:28;;;;;;;21.93;13.70;;;3.40;99.90;;;;;;5076990;28;20441;-65
2023/12/07 04:00:55;;;;;;;20.67;14.87;;;3.40;99.90;;;;;;5076592;28;20982;-64
2023/12/07 04:03:22;;;;;;;18.63;15.57;;;3.40;99.90;;;;;;5076381;28;20480;-64
2023/12/07 04:05:48;;;;;;;24.97;16.00;;;3.40;99.90;;;;;;5076873;28;20455;-64
2023/12/07 04:08:15;;;;;;;31.30;19.30;;;3.40;99.90;;;;;;5076762;28;20452;-64
2023/12/07 04:10:43;;;;;;;24.83;16.20;;;3.40;99.90;;;;;;5077456;28;20465;-65
2023/12/07 04:13:10;;;;;;;24.17;16.47;;;3.30;99.90;;;;;;5077439;28;20447;-65
2023/12/07 04:15:37;;;;;;;22.90;15.57;;;3.30;99.90;;;;;;5079153;28;20448;-65
2023/12/07 04:18:04;;;;;;;25.00;16.13;;;3.30;99.90;;;;;;5078614;28;20547;-64
2023/12/07 04:20:30;;;;;;;25.47;15.67;;;3.30;99.90;;;;;;5077915;28;20464;-64
2023/12/07 04:22:57;;;;;;;23.13;17.13;;;3.30;99.90;;;;;;5077552;28;20484;-64
2023/12/07 04:25:23;;;;;;;24.03;15.87;;;3.20;99.90;;;;;;5077065;28;20451;-64
2023/12/07 04:27:51;;;;;;;22.63;14.57;;;3.20;99.90;;;;;;5077149;28;20460;-65
2023/12/07 04:30:18;;;;;;;26.03;16.23;;;3.20;99.90;;;;;;5077255;28;20465;-65
2023/12/07 04:32:45;;;;;;;26.23;16.90;;;3.20;99.90;;;;;;5077091;28;20510;-65
2023/12/07 04:35:12;;;;;;;20.60;14.60;;;3.20;99.90;;;;;;5076931;28;20441;-65
2023/12/07 04:37:38;;;;;;;20.10;15.63;;;3.10;99.90;;;;;;5076851;28;20946;-65
2023/12/07 04:40:07;;;;;;;22.23;14.10;;;3.10;99.90;;;;;;5077369;28;20535;-65
2023/12/07 04:42:33;;;;;;;23.83;13.80;;;3.10;99.90;;;;;;5077030;28;20508;-65
2023/12/07 04:45:01;;;;;;;21.33;15.10;;;3.10;99.90;;;;;;5077244;28;20451;-65
2023/12/07 04:47:28;;;;;;;25.80;15.67;;;3.10;99.90;;;;;;5077247;28;20448;-65
2023/12/07 04:49:55;;;;;;;23.00;16.30;;;3.10;99.90;;;;;;5076255;28;20842;-65
2023/12/07 04:52:21;;;;;;;27.23;16.40;;;3.10;99.90;;;;;;5076730;28;20447;-65
2023/12/07 04:54:48;;;;;;;21.47;15.97;;;3.00;99.90;;;;;;5076609;28;20452;-65
2023/12/07 04:57:15;;;;;;;23.13;15.80;;;3.10;99.90;;;;;;5076297;28;20483;-64
2023/12/07 04:59:46;;;;;;;23.80;16.70;;;3.00;99.90;;;;;;5076078;28;20468;-65
2023/12/07 05:02:14;;;;;;;25.67;16.27;;;3.00;99.90;;;;;;5076517;28;20490;-65
2023/12/07 05:04:41;;;;;;;28.97;17.17;;;3.00;99.90;;;;;;5075972;28;20413;-65
2023/12/07 05:07:07;;;;;;;23.00;15.57;;;3.00;99.90;;;;;;5075846;28;20452;-64
2023/12/07 05:09:34;;;;;;;22.43;15.23;;;2.90;99.90;;;;;;5076345;28;20803;-65
2023/12/07 05:12:01;;;;;;;19.90;14.30;;;2.90;99.90;;;;;;5076220;28;20459;-65
2023/12/07 05:14:28;;;;;;;22.80;16.67;;;2.80;99.90;;;;;;5075662;28;20441;-65
2023/12/07 05:16:55;;;;;;;27.83;16.10;;;2.80;99.90;;;;;;5076030;28;20807;-66
2023/12/07 05:19:23;;;;;;;22.03;14.67;;;2.80;99.90;;;;;;5077118;28;20445;-65
2023/12/07 05:21:50;;;;;;;25.33;15.03;;;2.80;99.90;;;;;;5075317;28;20863;-65
2023/12/07 05:24:17;;;;;;;27.27;17.97;;;2.70;99.90;;;;;;5075639;28;20457;-65
2023/12/07 05:26:44;;;;;;;24.83;15.17;;;2.70;99.90;;;;;;5075083;28;20448;-65
2023/12/07 05:29:12;;;;;;;20.27;14.80;;;2.70;99.90;;;;;;5075085;28;20480;-65
2023/12/07 05:31:39;;;;;;;23.23;16.30;;;2.60;99.90;;;;;;5075281;28;20440;-65
2023/12/07 05:34:06;;;;;;;28.63;14.70;;;2.60;99.90;;;;;;5075035;28;20441;-64
2023/12/07 05:36:34;;;;;;;22.47;15.03;;;2.60;99.90;;;;;;5075306;28;20480;-65
2023/12/07 05:39:01;;;;;;;24.90;15.50;;;2.60;99.90;;;;;;5075193;28;20437;-65
2023/12/07 05:41:27;;;;;;;22.60;15.73;;;2.60;99.90;;;;;;5075069;28;20463;-65
2023/12/07 05:43:54;;;;;;;23.23;14.83;;;2.60;99.90;;;;;;5075045;28;20577;-65
2023/12/07 05:46:21;;;;;;;27.47;16.37;;;2.60;99.90;;;;;;5074765;28;20849;-65
2023/12/07 05:48:48;;;;;;;28.97;17.30;;;2.60;99.90;;;;;;5074938;28;20441;-65
2023/12/07 05:51:15;;;;;;;33.33;19.03;;;2.60;99.90;;;;;;5074824;28;20575;-65
2023/12/07 05:53:44;;;;;;;31.60;17.40;;;2.60;99.90;;;;;;5074724;28;20436;-65
2023/12/07 05:56:11;;;;;;;32.70;17.87;;;2.60;99.90;;;;;;5074652;28;20445;-65
2023/12/07 05:58:38;;;;;;;28.33;17.37;;;2.70;99.90;;;;;;5074742;28;20448;-65
2023/12/07 06:01:05;;;;;;;24.97;17.30;;;2.70;99.90;;;;;;5054573;28;21041;-64
2023/12/07 06:03:32;;;;;;;35.07;17.07;;;2.70;99.90;;;;;;5054013;28;20894;-65
2023/12/07 06:05:58;;;;;;;25.87;16.43;;;2.70;99.90;;;;;;5054602;28;20441;-65
2023/12/07 06:08:25;;;;;;;34.50;18.40;;;2.70;99.90;;;;;;5054526;28;20842;-65
2023/12/07 06:10:53;;;;;;;29.73;18.40;;;2.70;99.90;;;;;;5054547;28;20461;-64
2023/12/07 06:13:20;;;;;;;41.93;20.53;;;2.70;99.90;;;;;;5054471;28;20764;-65
2023/12/07 06:15:46;;;;;;;39.17;19.40;;;2.70;99.90;;;;;;5054395;28;20793;-65
2023/12/07 06:18:13;;;;;;;38.13;20.80;;;2.70;99.90;;;;;;5054257;28;20449;-65
2023/12/07 06:20:41;;;;;;;38.67;20.20;;;2.70;99.90;;;;;;5054305;28;20472;-65
2023/12/07 06:23:12;;;;;;;50.60;20.03;;;2.60;99.90;;;;;;5054332;28;20504;-65
2023/12/07 06:25:39;;;;;;;33.27;20.10;;;2.60;99.90;;;;;;5054346;28;20504;-65
2023/12/07 06:28:07;;;;;;;37.77;20.10;;;2.60;99.90;;;;;;5054124;28;20444;-65
2023/12/07 06:30:34;;;;;;;31.73;19.30;;;2.50;99.90;;;;;;5054112;28;20465;-65
2023/12/07 06:33:01;;;;;;;31.53;18.20;;;2.60;99.90;;;;;;5054193;28;20541;-65
2023/12/07 06:35:28;;;;;;;32.23;19.47;;;2.60;99.90;;;;;;5053900;28;20442;-65
2023/12/07 06:37:54;;;;;;;34.50;20.33;;;2.60;99.90;;;;;;5053901;28;20441;-65
2023/12/07 06:40:21;;;;;;;35.93;20.10;;;2.50;99.90;;;;;;5053980;28;20466;-65
2023/12/07 06:42:49;;;;;;;34.13;19.20;;;2.50;99.90;;;;;;5053582;28;21013;-65
2023/12/07 06:45:17;;;;;;;29.00;17.83;;;2.50;99.90;;;;;;5053938;28;20473;-65
2023/12/07 06:47:44;;;;;;;32.97;19.40;;;2.40;99.90;;;;;;5054058;28;20449;-65
2023/12/07 06:50:11;;;;;;;30.37;19.27;;;2.40;99.90;;;;;;5053774;28;20465;-65
2023/12/07 06:52:37;;;;;;;38.50;21.40;;;2.40;99.90;;;;;;5053727;28;20442;-65
2023/12/07 06:55:05;;;;;;;35.10;20.10;;;2.40;99.90;;;;;;5053394;28;20440;-64
2023/12/07 06:57:32;;;;;;;33.90;20.40;;;2.40;99.90;;;;;;5053548;28;20453;-65
2023/12/07 06:59:59;;;;;;;38.77;19.17;;;2.30;99.90;;;;;;5053253;28;20488;-65
2023/12/07 07:02:27;;;;;;;36.03;19.27;;;2.30;99.90;;;;;;5053196;28;20442;-65
2023/12/07 07:04:53;;;;;;;36.43;20.90;;;2.30;99.90;;;;;;5053465;28;20422;-65
2023/12/07 07:07:20;;;;;;;38.43;21.20;;;2.20;99.90;;;;;;5053417;28;20445;-65
2023/12/07 07:09:47;;;;;;;29.10;19.27;;;2.20;99.90;;;;;;5053314;28;20468;-65
2023/12/07 07:12:13;;;;;;;27.83;17.70;;;2.20;99.90;;;;;;5053357;28;20452;-65
2023/12/07 07:14:41;;;;;;;27.60;19.00;;;2.10;99.90;;;;;;5053115;28;20449;-65
2023/12/07 07:17:07;;;;;;;33.00;18.20;;;2.10;99.90;;;;;;5053282;28;20446;-65
2023/12/07 07:19:35;;;;;;;31.37;19.57;;;2.10;99.90;;;;;;5053364;28;20469;-65
2023/12/07 07:22:02;;;;;;;32.13;19.60;;;2.10;99.90;;;;;;5053218;28;20854;-66
2023/12/07 07:24:29;;;;;;;26.67;18.17;;;2.00;99.90;;;;;;5053495;28;20489;-65
2023/12/07 07:26:55;;;;;;;27.23;17.67;;;2.00;99.90;;;;;;5053489;28;20854;-65
2023/12/07 07:29:22;;;;;;;27.37;17.90;;;2.00;99.90;;;;;;5052909;28;20449;-65
2023/12/07 07:31:49;;;;;;;22.00;15.63;;;2.00;99.90;;;;;;5053485;28;20442;-65
2023/12/07 07:34:15;;;;;;;27.40;16.43;;;2.00;99.90;;;;;;5052864;28;20954;-65
2023/12/07 07:36:44;;;;;;;26.40;17.63;;;2.10;99.90;;;;;;5053048;28;20931;-65
2023/12/07 07:39:13;;;;;;;23.80;15.83;;;2.10;99.90;;;;;;5053213;28;20441;-65
2023/12/07 07:41:40;;;;;;;24.83;16.30;;;2.10;99.90;;;;;;5053308;28;20445;-65
2023/12/07 07:44:07;;;;;;;28.37;16.73;;;2.10;99.90;;;;;;5053203;28;20478;-65
2023/12/07 07:46:33;;;;;;;24.60;16.33;;;2.10;99.90;;;;;;5053243;28;20483;-65
2023/12/07 07:49:00;;;;;;;25.43;15.03;;;2.10;99.90;;;;;;5053195;28;20445;-65
2023/12/07 07:51:27;;;;;;;25.47;15.50;;;2.10;99.90;;;;;;5053138;28;20540;-65
2023/12/07 07:53:55;;;;;;;26.20;17.13;;;2.10;99.90;;;;;;5053351;28;20441;-65
2023/12/07 07:56:21;;;;;;;26.53;17.67;;;2.10;99.90;;;;;;5053095;28;20437;-65
2023/12/07 07:58:48;;;;;;;28.33;17.47;;;2.20;99.90;;;;;;5053065;28;20475;-65
2023/12/07 08:01:15;;;;;;;25.27;16.03;;;2.20;99.90;;;;;;5052937;28;20462;-65
2023/12/07 08:03:41;;;;;;;24.67;17.50;;;2.20;99.90;;;;;;5052760;28;20481;-65
2023/12/07 08:06:09;;;;;;;30.03;16.70;;;2.20;99.90;;;;;;5053114;28;20445;-65
2023/12/07 08:08:35;;;;;;;25.70;16.67;;;2.30;99.90;;;;;;5053016;28;20473;-65
2023/12/07 08:11:05;;;;;;;22.80;16.20;;;2.30;99.90;;;;;;5052570;28;20978;-66
2023/12/07 08:13:31;;;;;;;27.80;17.27;;;2.30;99.90;;;;;;5052793;28;20495;-65
2023/12/07 08:15:58;;;;;;;25.10;15.17;;;2.30;99.90;;;;;;5052843;28;20450;-65
2023/12/07 08:18:25;;;;;;;28.13;14.97;;;2.40;99.90;;;;;;5052918;28;20429;-65
2023/12/07 08:20:52;;;;;;;24.30;14.90;;;2.40;99.90;;;;;;5052700;28;20534;-65
2023/12/07 08:23:19;;;;;;;19.03;13.30;;;2.40;99.90;;;;;;5052844;28;20488;-65
2023/12/07 08:25:45;;;;;;;21.37;13.53;;;2.40;99.90;;;;;;5052803;28;20527;-65
2023/12/07 08:28:14;;;;;;;21.13;12.90;;;2.50;99.90;;;;;;5052887;28;20452;-65
2023/12/07 08:30:40;;;;;;;22.23;14.13;;;2.50;99.90;;;;;;5052639;28;20469;-65
2023/12/07 08:33:07;;;;;;;27.50;13.50;;;2.50;99.90;;;;;;5052891;28;20469;-65
2023/12/07 08:35:34;;;;;;;19.50;13.10;;;2.50;99.90;;;;;;5052672;28;20452;-65
2023/12/07 08:38:00;;;;;;;23.60;14.13;;;2.60;99.90;;;;;;5052866;28;20445;-65
2023/12/07 08:40:27;;;;;;;20.33;13.30;;;2.60;99.90;;;;;;5053100;28;20469;-65
2023/12/07 08:42:56;;;;;;;20.20;13.10;;;2.60;99.90;;;;;;5056459;28;20464;-65
2023/12/07 08:45:24;;;;;;;18.07;13.30;;;2.60;99.90;;;;;;5056506;28;20453;-65
2023/12/07 08:47:51;;;;;;;18.80;13.10;;;2.60;99.90;;;;;;5056231;28;20469;-65
2023/12/07 08:50:18;;;;;;;20.23;12.93;;;2.60;99.90;;;;;;5056140;28;20473;-65
2023/12/07 08:52:44;;;;;;;19.33;14.10;;;2.70;99.90;;;;;;5056068;28;20798;-65
2023/12/07 08:55:11;;;;;;;20.80;13.33;;;2.70;99.90;;;;;;5055769;28;20437;-65
2023/12/07 08:57:37;;;;;;;17.80;12.07;;;2.70;99.90;;;;;;5056067;28;20437;-64
2023/12/07 09:00:05;;;;;;;16.97;13.00;;;2.80;99.90;;;;;;5055697;28;20484;-64
2023/12/07 09:02:33;;;;;;;19.83;13.43;;;2.80;99.90;;;;;;5055614;28;20461;-65
2023/12/07 09:05:00;;;;;;;18.93;14.00;;;2.80;99.90;;;;;;5055770;28;20482;-65
2023/12/07 09:07:27;;;;;;;22.40;14.20;;;2.80;99.90;;;;;;5055374;28;20807;-65
2023/12/07 09:09:54;;;;;;;18.00;13.13;;;2.80;99.90;;;;;;5055590;28;20496;-65
2023/12/07 09:12:20;;;;;;;18.60;12.57;;;2.80;99.90;;;;;;5055595;28;20445;-65
2023/12/07 09:14:47;;;;;;;17.57;12.80;;;2.90;99.90;;;;;;5055053;28;20442;-65
2023/12/07 09:17:15;;;;;;;18.27;12.87;;;2.90;99.90;;;;;;5055169;28;20858;-65
2023/12/07 09:19:45;;;;;;;19.77;13.37;;;3.00;99.90;;;;;;5055371;28;20553;-64
2023/12/07 09:22:13;;;;;;;16.50;12.40;;;3.00;99.90;;;;;;5055482;28;20421;-64
2023/12/07 09:24:41;;;;;;;20.07;12.50;;;3.00;99.90;;;;;;5055357;28;20508;-64
2023/12/07 09:27:07;;;;;;;16.53;11.70;;;3.10;99.90;;;;;;5055430;28;20438;-63
2023/12/07 09:29:34;;;;;;;19.53;13.13;;;3.20;99.90;;;;;;5055194;28;20469;-64
2023/12/07 09:32:01;;;;;;;16.63;12.37;;;3.20;99.90;;;;;;5055237;28;20437;-64
2023/12/07 09:34:27;;;;;;;18.00;12.37;;;3.30;99.90;;;;;;5055253;28;20449;-64
2023/12/07 09:37:08;;;;;;;15.60;12.37;;;3.30;99.90;;;;;;5054973;28;20441;-64
2023/12/07 09:39:35;;;;;;;18.30;12.73;;;3.30;99.90;;;;;;5055118;28;20519;-64
2023/12/07 09:42:02;;;;;;;18.57;13.00;;;3.40;99.90;;;;;;5055074;28;20441;-64
2023/12/07 09:44:29;;;;;;;19.13;11.20;;;3.40;99.90;;;;;;5054995;28;20478;-64
2023/12/07 09:46:56;;;;;;;15.40;12.00;;;3.50;99.90;;;;;;5055023;28;20442;-64
2023/12/07 09:49:22;;;;;;;16.27;12.37;;;3.50;99.90;;;;;;5054980;28;20478;-64
2023/12/07 09:51:51;;;;;;;15.47;11.83;;;3.60;99.90;;;;;;5054216;28;20963;-64
2023/12/07 09:54:22;;;;;;;16.43;12.33;;;3.60;99.90;;;;;;5054877;28;20438;-64
2023/12/07 09:56:51;;;;;;;16.60;11.80;;;3.70;99.90;;;;;;5054615;28;20425;-64
2023/12/07 09:59:17;;;;;;;18.80;12.07;;;3.80;99.90;;;;;;5054395;28;20449;-64
2023/12/07 10:01:44;;;;;;;16.60;11.87;;;3.80;99.90;;;;;;5054633;28;20456;-64
2023/12/07 10:04:19;;;;;;;20.40;12.70;;;3.90;99.90;;;;;;5054209;28;21066;-64
2023/12/07 10:06:47;;;;;;;18.37;12.20;;;3.90;99.90;;;;;;5054566;28;20445;-64
2023/12/07 10:09:14;;;;;;;16.80;12.27;;;4.00;99.90;;;;;;5054463;28;20479;-64
2023/12/07 10:11:43;;;;;;;16.43;11.63;;;4.00;99.90;;;;;;5054356;28;20488;-64
2023/12/07 10:14:10;;;;;;;14.73;10.80;;;4.10;99.90;;;;;;5054438;28;20441;-64
2023/12/07 10:16:37;;;;;;;17.27;12.03;;;4.20;99.90;;;;;;5054217;28;20442;-64
2023/12/07 10:19:14;;;;;;;14.93;11.53;;;4.30;99.90;;;;;;5054288;28;20452;-64
2023/12/07 10:21:41;;;;;;;16.20;11.80;;;4.40;99.90;;;;;;5053973;28;20848;-63
2023/12/07 10:24:10;;;;;;;16.30;12.90;;;4.40;99.90;;;;;;5054159;28;20511;-63
2023/12/07 10:26:37;;;;;;;21.73;12.73;;;4.50;99.90;;;;;;5053944;28;20449;-63
2023/12/07 10:29:05;;;;;;;14.60;11.10;;;4.50;99.90;;;;;;5053851;28;20982;-62
2023/12/07 10:31:32;;;;;;;15.67;10.43;;;4.60;99.90;;;;;;5054199;28;20441;-62
2023/12/07 10:34:00;;;;;;;13.10;10.30;;;4.70;99.90;;;;;;5054486;28;20942;-62
2023/12/07 10:36:26;;;;;;;14.23;10.50;;;4.80;99.90;;;;;;5054128;28;20477;-62
2023/12/07 10:38:54;;;;;;;16.07;11.83;;;4.80;99.90;;;;;;5053899;28;20456;-62
2023/12/07 10:41:21;;;;;;;15.90;11.20;;;4.90;99.90;;;;;;5053997;28;20465;-62
2023/12/07 10:43:52;;;;;;;17.33;10.90;;;5.00;99.90;;;;;;5054526;28;20481;-62
2023/12/07 10:46:21;;;;;;;13.20;10.20;;;5.10;99.90;;;;;;5054148;28;20436;-62
2023/12/07 10:48:49;;;;;;;19.43;11.17;;;5.20;99.90;;;;;;5053446;28;20445;-63
2023/12/07 10:51:21;;;;;;;17.57;13.27;;;5.40;99.90;;;;;;5053382;28;20990;-63
2023/12/07 10:53:51;;;;;;;20.07;12.30;;;5.50;99.90;;;;;;5053901;28;20421;-63
2023/12/07 10:56:29;;;;;;;18.67;12.97;;;5.60;99.90;;;;;;5054062;28;20438;-63
2023/12/07 10:58:56;;;;;;;16.80;13.50;;;5.80;99.90;;;;;;5053720;28;20421;-62
2023/12/07 11:01:25;;;;;;;20.00;16.50;;;5.90;99.90;;;;;;5053631;28;20473;-62
2023/12/07 11:03:54;;;;;;;21.33;14.73;;;6.10;99.90;;;;;;5052606;28;20484;-62
2023/12/07 11:06:21;;;;;;;23.63;14.77;;;6.30;99.90;;;;;;5053521;28;20442;-62
2023/12/07 11:08:53;;;;;;;19.93;14.43;;;6.50;99.90;;;;;;5053607;28;20437;-62
2023/12/07 11:11:25;;;;;;;19.60;13.70;;;6.90;99.90;;;;;;5053646;28;20450;-62
2023/12/07 11:13:58;;;;;;;19.63;14.57;;;7.20;99.90;;;;;;5053561;28;20453;-62
2023/12/07 11:16:33;;;;;;;15.87;13.07;;;7.60;99.90;;;;;;5053389;28;20422;-63
2023/12/07 11:19:00;;;;;;;19.23;14.17;;;8.00;99.90;;;;;;5053511;28;20445;-63
2023/12/07 11:21:27;;;;;;;14.43;12.90;;;8.30;99.90;;;;;;5053322;28;20497;-63
2023/12/07 11:23:54;;;;;;;15.73;13.20;;;8.60;98.50;;;;;;5053498;28;20485;-63
2023/12/07 11:26:23;;;;;;;15.10;13.10;;;8.80;97.50;;;;;;5053076;28;21024;-63
2023/12/07 11:28:49;;;;;;;15.50;12.77;;;9.10;96.80;;;;;;5053402;28;20438;-63
2023/12/07 11:31:17;;;;;;;14.73;13.00;;;9.30;95.80;;;;;;5053391;28;20457;-64
2023/12/07 11:33:45;;;;;;;19.83;14.90;;;9.60;95.30;;;;;;5053411;28;20449;-64
2023/12/07 11:36:13;;;;;;;15.27;12.90;;;9.80;93.90;;;;;;5052676;28;20448;-64
2023/12/07 11:39:11;;;;;;;16.40;12.40;;;10.00;92.60;;;;;;5053204;28;20503;-64
2023/12/07 11:41:45;;;;;;;17.63;12.10;;;10.30;92.10;;;;;;5052959;28;20442;-64
2023/12/07 11:44:12;;;;;;;16.30;11.80;;;10.50;91.00;;;;;;5052883;28;20492;-64
2023/12/07 11:46:39;;;;;;;17.17;13.07;;;10.70;90.40;;;;;;5053265;28;20491;-64
2023/12/07 11:49:10;;;;;;;13.97;11.33;;;10.80;86.80;;;;;;5052766;28;20958;-64
2023/12/07 11:51:37;;;;;;;13.67;10.57;;;10.80;85.70;;;;;;5053137;28;20430;-64
2023/12/07 11:54:04;;;;;;;13.73;10.90;;;10.80;85.70;;;;;;5053274;28;20442;-64
2023/12/07 11:56:31;;;;;;;13.20;11.53;;;10.80;85.70;;;;;;5053022;28;20514;-64
2023/12/07 11:58:59;;;;;;;13.60;11.07;;;10.90;85.40;;;;;;5053336;28;20506;-64
2023/12/07 12:01:27;;;;;;;13.03;11.13;;;11.00;85.20;;;;;;5053015;28;20470;-64
2023/12/07 12:03:54;;;;;;;11.90;10.70;;;11.10;82.80;;;;;;5052845;28;20468;-64
2023/12/07 12:06:26;;;;;;;12.07;10.43;;;11.00;82.50;;;;;;5053165;28;20827;-64
2023/12/07 12:08:53;;;;;;;12.63;10.90;;;11.00;82.70;;;;;;5052882;28;20991;-64
2023/12/07 12:11:20;;;;;;;11.70;10.50;;;11.10;81.60;;;;;;5052979;28;20456;-64
2023/12/07 12:13:47;;;;;;;14.10;10.63;;;10.90;79.60;;;;;;5053004;28;20448;-65
2023/12/07 12:16:13;;;;;;;15.77;10.57;;;10.70;79.90;;;;;;5056314;28;20448;-64
2023/12/07 12:18:40;;;;;;;14.60;11.13;;;10.50;81.20;;;;;;5056819;28;20474;-64
2023/12/07 12:21:09;;;;;;;12.37;10.93;;;10.40;80.60;;;;;;5056816;28;20461;-64
2023/12/07 12:23:39;;;;;;;12.53;11.30;;;10.30;82.20;;;;;;5056713;28;20483;-64
2023/12/07 12:26:07;;;;;;;12.17;10.87;;;10.30;82.80;;;;;;5056460;28;20575;-64
2023/12/07 12:28:37;;;;;;;13.40;11.40;;;10.40;83.30;;;;;;5056597;28;20457;-64
2023/12/07 12:31:05;;;;;;;10.90;9.70;;;10.60;83.60;;;;;;5056192;28;20976;-64
2023/12/07 12:33:32;;;;;;;12.23;10.03;;;10.80;83.20;;;;;;5056554;28;20452;-64
2023/12/07 12:36:07;;;;;;;12.17;10.30;;;11.00;83.00;;;;;;5056323;28;20935;-64
2023/12/07 12:38:34;;;;;;;11.50;10.30;;;11.20;81.10;;;;;;5055888;28;20437;-64